createdAt,value
2023-03-18T00:02:13.746Z,6.48
2023-03-18T00:04:40.581Z,6.50
2023-03-18T00:07:07.544Z,6.50
2023-03-18T00:09:34.576Z,6.51
2023-03-18T00:12:01.520Z,6.52
2023-03-18T00:14:29.489Z,6.54
2023-03-18T00:16:57.009Z,6.54
2023-03-18T00:19:24.675Z,6.53
2023-03-18T00:21:51.472Z,6.49
2023-03-18T00:24:18.186Z,6.47
2023-03-18T00:26:45.887Z,6.45
2023-03-18T00:29:13.115Z,6.44
2023-03-18T00:31:41.198Z,6.42
2023-03-18T00:34:12.493Z,6.43
2023-03-18T00:36:41.228Z,6.43
2023-03-18T00:39:08.984Z,6.43
2023-03-18T00:41:37.787Z,6.45
2023-03-18T00:44:05.440Z,6.44
2023-03-18T00:46:37.195Z,6.46
2023-03-18T00:49:05.988Z,6.47
2023-03-18T00:51:34.721Z,6.50
2023-03-18T00:54:06.014Z,6.51
2023-03-18T00:56:33.358Z,6.50
2023-03-18T00:59:00.369Z,6.51
2023-03-18T01:01:27.716Z,6.50
2023-03-18T01:03:55.291Z,6.48
2023-03-18T01:06:24.425Z,6.46
2023-03-18T01:08:53.195Z,6.47
2023-03-18T01:11:19.963Z,6.48
2023-03-18T01:13:47.432Z,6.51
2023-03-18T01:16:14.484Z,6.51
2023-03-18T01:18:41.542Z,6.51
2023-03-18T01:21:09.043Z,6.53
2023-03-18T01:23:38.591Z,6.51
2023-03-18T01:26:05.492Z,6.55
2023-03-18T01:28:33.434Z,6.57
2023-03-18T01:31:00.966Z,6.52
2023-03-18T01:33:29.445Z,6.51
2023-03-18T01:35:59.428Z,6.45
2023-03-18T01:38:31.439Z,6.45
2023-03-18T01:41:07.038Z,6.44
2023-03-18T01:43:35.760Z,6.41
2023-03-18T01:46:44.392Z,6.39
2023-03-18T01:49:22.184Z,6.39
2023-03-18T01:51:57.944Z,6.38
2023-03-18T01:54:25.951Z,6.38
2023-03-18T01:56:53.457Z,6.37
2023-03-18T01:59:21.992Z,6.36
2023-03-18T02:02:06.298Z,6.39
2023-03-18T02:04:56.807Z,6.41
2023-03-18T02:07:29.258Z,6.43
2023-03-18T02:09:57.361Z,6.47
2023-03-18T02:12:26.551Z,6.47
2023-03-18T02:14:55.600Z,6.46
2023-03-18T02:17:29.876Z,6.45
2023-03-18T02:20:14.480Z,6.44
2023-03-18T02:22:45.068Z,6.45
2023-03-18T02:25:33.612Z,6.44
2023-03-18T02:28:02.759Z,6.45
2023-03-18T02:30:54.229Z,6.40
2023-03-18T02:33:22.606Z,6.01
2023-03-18T02:35:56.533Z,5.32
2023-03-18T02:38:23.873Z,5.21
2023-03-18T02:40:53.997Z,5.16
2023-03-18T02:43:24.681Z,5.12
2023-03-18T02:45:57.529Z,5.10
2023-03-18T02:48:28.756Z,5.07
2023-03-18T02:50:55.438Z,5.03
2023-03-18T02:53:25.673Z,5.03
2023-03-18T02:55:52.671Z,5.00
2023-03-18T02:58:19.253Z,5.00
2023-03-18T03:00:47.804Z,5.00
2023-03-18T03:03:14.897Z,5.01
2023-03-18T03:05:45.334Z,4.99
2023-03-18T03:08:12.612Z,4.97
2023-03-18T03:10:41.531Z,4.94
2023-03-18T03:13:11.532Z,4.93
2023-03-18T03:15:42.540Z,4.93
2023-03-18T03:18:09.726Z,4.93
2023-03-18T03:20:38.393Z,5.05
2023-03-18T03:23:06.719Z,5.94
2023-03-18T03:25:34.871Z,6.11
2023-03-18T03:28:03.387Z,6.18
2023-03-18T03:30:30.318Z,6.23
2023-03-18T03:33:02.320Z,6.28
2023-03-18T03:35:29.103Z,6.30
2023-03-18T03:37:56.352Z,6.29
2023-03-18T03:40:23.384Z,6.25
2023-03-18T03:42:51.263Z,6.21
2023-03-18T03:45:18.656Z,6.17
2023-03-18T03:47:46.613Z,6.17
2023-03-18T03:50:18.560Z,6.15
2023-03-18T03:52:47.607Z,6.14
2023-03-18T03:55:16.906Z,6.13
2023-03-18T03:57:45.293Z,6.13
2023-03-18T04:00:14.736Z,6.14
2023-03-18T04:02:43.139Z,6.14
2023-03-18T04:05:12.004Z,6.11
2023-03-18T04:07:39.158Z,6.12
2023-03-18T04:10:08.991Z,6.13
2023-03-18T04:12:37.633Z,6.15
2023-03-18T04:15:06.063Z,6.13
2023-03-18T04:17:34.029Z,6.12
2023-03-18T04:20:01.469Z,6.10
2023-03-18T04:22:31.343Z,6.09
2023-03-18T04:24:59.931Z,6.08
2023-03-18T04:27:27.543Z,6.08
2023-03-18T04:29:55.856Z,6.07
2023-03-18T04:32:23.080Z,6.04
2023-03-18T04:34:49.893Z,6.04
2023-03-18T04:37:19.629Z,6.05
2023-03-18T04:39:47.421Z,6.07
2023-03-18T04:42:15.397Z,6.09
2023-03-18T04:44:42.142Z,6.08
2023-03-18T04:47:09.146Z,6.05
2023-03-18T04:49:37.232Z,6.04
2023-03-18T04:52:04.812Z,6.06
2023-03-18T04:54:36.653Z,6.05
2023-03-18T04:57:05.562Z,6.05
2023-03-18T04:59:35.538Z,6.06
2023-03-18T05:02:04.451Z,6.07
2023-03-18T05:04:31.848Z,6.08
2023-03-18T05:07:00.158Z,6.10
2023-03-18T05:09:30.840Z,6.14
2023-03-18T05:12:00.612Z,6.14
2023-03-18T05:14:32.358Z,6.12
2023-03-18T05:16:59.526Z,6.13
2023-03-18T05:19:27.586Z,6.16
2023-03-18T05:22:00.539Z,6.15
2023-03-18T05:24:28.142Z,6.12
2023-03-18T05:26:59.506Z,6.13
2023-03-18T05:29:31.960Z,6.12
2023-03-18T05:32:19.695Z,6.13
2023-03-18T05:34:50.075Z,6.14
2023-03-18T05:37:17.475Z,6.15
2023-03-18T05:39:50.562Z,6.13
2023-03-18T05:42:19.176Z,6.12
2023-03-18T05:44:46.294Z,6.10
2023-03-18T05:47:13.431Z,6.10
2023-03-18T05:49:52.373Z,6.09
2023-03-18T05:52:24.148Z,6.15
2023-03-18T05:54:53.742Z,6.20
2023-03-18T05:57:26.122Z,6.26
2023-03-18T05:59:59.033Z,6.35
2023-03-18T06:02:28.055Z,6.36
2023-03-18T06:04:55.502Z,6.43
2023-03-18T06:07:23.292Z,6.43
2023-03-18T06:09:51.807Z,6.43
2023-03-18T06:12:19.751Z,6.48
2023-03-18T06:14:46.344Z,6.49
2023-03-18T06:17:13.381Z,6.55
2023-03-18T06:19:40.718Z,6.58
2023-03-18T06:22:09.370Z,6.59
2023-03-18T06:24:36.861Z,6.58
2023-03-18T06:27:04.165Z,6.62
2023-03-18T06:29:33.241Z,6.65
2023-03-18T06:32:09.409Z,6.68
2023-03-18T06:34:40.317Z,6.72
2023-03-18T06:37:07.695Z,6.72
2023-03-18T06:39:34.919Z,6.70
2023-03-18T06:42:04.327Z,6.73
2023-03-18T06:44:36.199Z,6.74
2023-03-18T06:47:18.829Z,6.77
2023-03-18T06:49:51.583Z,6.82
2023-03-18T06:52:22.789Z,6.90
2023-03-18T06:54:50.097Z,6.99
2023-03-18T06:57:16.948Z,7.07
2023-03-18T06:59:48.686Z,7.16
2023-03-18T07:02:15.773Z,7.27
2023-03-18T07:04:42.707Z,7.33
2023-03-18T07:07:10.490Z,7.37
2023-03-18T07:09:37.289Z,7.40
2023-03-18T07:12:07.758Z,7.40
2023-03-18T07:14:35.078Z,7.43
2023-03-18T07:17:02.249Z,7.47
2023-03-18T07:19:32.677Z,7.53
2023-03-18T07:22:01.952Z,7.60
2023-03-18T07:24:29.815Z,7.65
2023-03-18T07:27:04.014Z,7.70
2023-03-18T07:29:33.306Z,7.78
2023-03-18T07:32:01.256Z,7.84
2023-03-18T07:34:28.254Z,7.89
2023-03-18T07:36:55.982Z,7.90
2023-03-18T07:39:28.121Z,7.88
2023-03-18T07:41:55.026Z,7.86
2023-03-18T07:44:24.748Z,7.83
2023-03-18T07:46:51.861Z,7.86
2023-03-18T07:49:18.628Z,7.92
2023-03-18T07:51:46.864Z,7.96
2023-03-18T07:54:13.732Z,8.03
2023-03-18T07:56:40.531Z,8.09
2023-03-18T07:59:09.786Z,8.14
2023-03-18T08:01:36.657Z,8.20
2023-03-18T08:04:03.781Z,8.31
2023-03-18T08:06:32.336Z,8.36
2023-03-18T08:08:59.766Z,8.37
2023-03-18T08:11:29.739Z,8.40
2023-03-18T08:13:58.706Z,8.44
2023-03-18T08:16:26.563Z,8.48
2023-03-18T08:18:54.602Z,8.57
2023-03-18T08:21:24.193Z,8.68
2023-03-18T08:23:51.634Z,8.78
2023-03-18T08:26:18.963Z,8.94
2023-03-18T08:28:45.760Z,9.14
2023-03-18T08:31:14.721Z,9.34
2023-03-18T08:33:41.864Z,9.50
2023-03-18T08:36:08.756Z,9.63
2023-03-18T08:38:38.567Z,9.74
2023-03-18T08:41:05.943Z,9.90
2023-03-18T08:43:32.542Z,10.10
2023-03-18T08:45:59.655Z,10.30
2023-03-18T08:48:26.235Z,10.49
2023-03-18T08:50:55.280Z,10.64
2023-03-18T08:53:22.162Z,10.80
2023-03-18T08:55:48.956Z,10.90
2023-03-18T08:58:16.636Z,10.94
2023-03-18T09:00:43.834Z,10.92
2023-03-18T09:03:12.632Z,10.80
2023-03-18T09:05:40.128Z,10.68
2023-03-18T09:08:06.832Z,10.64
2023-03-18T09:10:33.712Z,10.59
2023-03-18T09:13:01.220Z,10.56
2023-03-18T09:15:27.948Z,10.54
2023-03-18T09:18:10.522Z,10.53
2023-03-18T09:20:39.547Z,10.54
2023-03-18T09:23:07.759Z,10.58
2023-03-18T09:25:35.625Z,10.58
2023-03-18T09:28:02.360Z,10.57
2023-03-18T09:30:32.983Z,10.61
2023-03-18T09:33:01.076Z,10.64
2023-03-18T09:35:35.968Z,10.65
2023-03-18T09:38:03.400Z,10.62
2023-03-18T09:40:32.124Z,10.56
2023-03-18T09:43:03.287Z,10.52
2023-03-18T09:45:34.011Z,10.50
2023-03-18T09:48:15.942Z,10.46
2023-03-18T09:50:49.665Z,10.41
2023-03-18T09:53:20.682Z,10.38
2023-03-18T09:55:50.122Z,10.35
2023-03-18T09:58:36.707Z,10.31
2023-03-18T10:01:03.928Z,10.28
2023-03-18T10:03:46.224Z,10.30
2023-03-18T10:06:31.115Z,10.33
2023-03-18T10:09:05.097Z,10.34
2023-03-18T10:11:37.718Z,10.31
2023-03-18T10:14:22.976Z,10.26
2023-03-18T10:17:09.392Z,10.31
2023-03-18T10:19:37.039Z,10.30
2023-03-18T10:22:18.167Z,10.27
2023-03-18T10:25:15.103Z,10.29
2023-03-18T10:27:58.513Z,10.34
2023-03-18T10:30:39.157Z,10.39
2023-03-18T10:33:29.327Z,10.48
2023-03-18T10:36:26.089Z,10.53
2023-03-18T10:38:53.553Z,10.59
2023-03-18T10:41:34.315Z,10.68
2023-03-18T10:44:15.437Z,10.82
2023-03-18T10:46:43.371Z,10.89
2023-03-18T10:49:14.411Z,10.88
2023-03-18T10:51:47.009Z,10.85
2023-03-18T10:54:24.892Z,10.78
2023-03-18T10:56:52.488Z,10.77
2023-03-18T10:59:20.859Z,10.80
2023-03-18T11:01:52.192Z,10.79
2023-03-18T11:04:20.906Z,10.75
2023-03-18T11:07:00.969Z,10.73
2023-03-18T11:09:35.704Z,10.67
2023-03-18T11:12:07.199Z,10.63
2023-03-18T11:14:36.796Z,10.65
2023-03-18T11:17:05.608Z,10.74
2023-03-18T11:19:38.633Z,10.86
2023-03-18T11:22:09.418Z,10.90
2023-03-18T11:24:41.868Z,10.91
2023-03-18T11:27:14.089Z,10.94
2023-03-18T11:29:42.248Z,10.96
2023-03-18T11:32:27.150Z,11.06
2023-03-18T11:34:56.610Z,11.23
2023-03-18T11:37:36.637Z,11.37
2023-03-18T11:40:13.710Z,11.42
2023-03-18T11:42:42.640Z,11.39
2023-03-18T11:45:35.291Z,11.44
2023-03-18T11:48:03.096Z,11.62
2023-03-18T11:50:38.901Z,11.85
2023-03-18T11:53:17.016Z,12.11
2023-03-18T11:56:31.024Z,12.41
2023-03-18T11:59:08.907Z,12.90
2023-03-18T12:01:46.139Z,13.20
2023-03-18T12:04:35.235Z,13.48
2023-03-18T12:07:14.721Z,13.68
2023-03-18T12:10:12.254Z,13.81
2023-03-18T12:12:45.967Z,14.00
2023-03-18T12:15:35.700Z,14.04
2023-03-18T12:18:11.466Z,13.91
2023-03-18T12:20:47.422Z,13.84
2023-03-18T12:23:32.344Z,13.85
2023-03-18T12:26:16.409Z,13.90
2023-03-18T12:29:09.001Z,13.82
2023-03-18T12:31:40.708Z,13.66
2023-03-18T12:34:22.821Z,13.61
2023-03-18T12:37:31.632Z,13.59
2023-03-18T12:40:20.780Z,13.53
2023-03-18T12:43:20.309Z,13.49
2023-03-18T12:45:47.999Z,13.45
2023-03-18T12:48:17.998Z,13.41
2023-03-18T12:51:05.450Z,13.42
2023-03-18T12:53:40.582Z,13.44
2023-03-18T12:56:16.822Z,13.48
2023-03-18T12:58:45.628Z,13.54
2023-03-18T13:01:17.513Z,13.60
2023-03-18T13:03:51.474Z,13.63
2023-03-18T13:06:39.840Z,13.65
2023-03-18T13:09:44.021Z,13.67
2023-03-18T13:12:32.840Z,13.57
2023-03-18T13:15:26.170Z,13.58
2023-03-18T13:17:55.665Z,13.60
2023-03-18T13:20:24.323Z,13.61
2023-03-18T13:23:20.136Z,13.59
2023-03-18T13:26:14.674Z,13.55
2023-03-18T13:29:20.127Z,13.47
2023-03-18T13:32:06.090Z,13.39
2023-03-18T13:34:49.440Z,13.36
2023-03-18T13:37:34.189Z,13.36
2023-03-18T13:40:42.979Z,13.34
2023-03-18T13:43:17.684Z,13.26
2023-03-18T13:45:46.034Z,13.21
2023-03-18T13:48:27.922Z,13.21
2023-03-18T13:50:56.853Z,13.26
2023-03-18T13:53:29.432Z,13.34
2023-03-18T13:55:57.225Z,13.44
2023-03-18T13:58:27.055Z,13.35
2023-03-18T14:00:54.421Z,13.12
2023-03-18T14:03:22.320Z,12.96
2023-03-18T14:05:53.482Z,12.86
2023-03-18T14:08:41.732Z,12.85
2023-03-18T14:11:21.959Z,12.88
2023-03-18T14:13:53.277Z,12.93
2023-03-18T14:16:46.794Z,12.95
2023-03-18T14:19:27.864Z,12.99
2023-03-18T14:22:07.632Z,12.95
2023-03-18T14:24:34.772Z,12.86
2023-03-18T14:27:03.810Z,12.78
2023-03-18T14:29:41.064Z,12.63
2023-03-18T14:32:35.752Z,12.39
2023-03-18T14:35:30.532Z,12.17
2023-03-18T14:38:10.183Z,12.12
2023-03-18T14:40:42.448Z,12.10
2023-03-18T14:43:38.206Z,12.05
2023-03-18T14:46:31.241Z,11.93
2023-03-18T14:49:01.324Z,11.80
2023-03-18T14:51:31.744Z,11.68
2023-03-18T14:54:06.300Z,11.58
2023-03-18T14:56:42.169Z,11.50
2023-03-18T14:59:16.764Z,11.40
2023-03-18T15:01:52.980Z,11.32
2023-03-18T15:04:25.186Z,11.30
2023-03-18T15:06:56.481Z,11.27
2023-03-18T15:09:30.166Z,11.24
2023-03-18T15:11:59.189Z,11.23
2023-03-18T15:14:31.097Z,11.23
2023-03-18T15:17:02.209Z,11.22
2023-03-18T15:19:34.289Z,11.15
2023-03-18T15:22:07.203Z,11.06
2023-03-18T15:24:38.194Z,10.95
2023-03-18T15:27:21.364Z,10.86
2023-03-18T15:29:57.230Z,10.77
2023-03-18T15:32:35.169Z,10.68
2023-03-18T15:41:40.050Z,10.44
2023-03-18T15:44:14.454Z,10.32
2023-03-18T15:46:46.380Z,10.24
2023-03-18T15:49:14.746Z,10.18
2023-03-18T15:51:47.819Z,10.12
2023-03-18T15:54:18.175Z,10.08
2023-03-18T15:56:48.842Z,10.04
2023-03-18T15:59:24.559Z,9.98
2023-03-18T16:01:54.600Z,9.91
2023-03-18T16:04:22.960Z,9.83
2023-03-18T16:06:54.892Z,9.74
2023-03-18T16:09:24.532Z,9.67
2023-03-18T16:11:59.190Z,9.63
2023-03-18T16:14:30.461Z,9.58
2023-03-18T16:16:58.771Z,9.52
2023-03-18T16:19:28.431Z,9.46
2023-03-18T16:21:58.706Z,9.40
2023-03-18T16:24:28.119Z,9.32
2023-03-18T16:26:57.272Z,9.26
2023-03-18T16:29:32.770Z,9.18
2023-03-18T16:32:02.060Z,9.09
2023-03-18T16:34:30.834Z,9.02
2023-03-18T16:36:58.858Z,8.95
2023-03-18T16:39:34.335Z,8.90
2023-03-18T16:42:08.744Z,8.82
2023-03-18T16:44:37.178Z,8.75
2023-03-18T16:47:05.479Z,8.67
2023-03-18T16:49:36.761Z,8.57
2023-03-18T16:52:05.139Z,8.43
2023-03-18T16:54:34.392Z,8.33
2023-03-18T16:57:05.894Z,8.28
2023-03-18T16:59:35.386Z,8.22
2023-03-18T17:02:04.329Z,8.17
2023-03-18T17:04:34.564Z,8.14
2023-03-18T17:07:04.691Z,8.11
2023-03-18T17:09:32.951Z,8.06
2023-03-18T17:12:06.623Z,8.00
2023-03-18T17:14:40.106Z,7.94
2023-03-18T17:17:28.350Z,7.88
2023-03-18T17:20:03.928Z,7.81
2023-03-18T17:22:33.551Z,7.77
2023-03-18T17:25:02.580Z,7.73
2023-03-18T17:27:34.900Z,7.69
2023-03-18T17:30:03.722Z,7.64
2023-03-18T17:32:32.567Z,7.59
2023-03-18T17:35:01.332Z,7.56
2023-03-18T17:37:29.786Z,7.53
2023-03-18T17:40:06.963Z,7.51
2023-03-18T17:42:36.299Z,7.46
2023-03-18T17:45:29.736Z,7.42
2023-03-18T17:48:22.076Z,7.33
2023-03-18T17:51:02.791Z,7.22
2023-03-18T17:53:37.535Z,7.04
2023-03-18T17:56:08.007Z,6.88
2023-03-18T17:58:37.861Z,6.75
2023-03-18T18:01:07.874Z,6.63
2023-03-18T18:03:36.982Z,6.51
2023-03-18T18:06:06.935Z,6.44
2023-03-18T18:08:36.209Z,6.37
2023-03-18T18:11:15.392Z,6.29
2023-03-18T18:13:43.699Z,6.20
2023-03-18T18:16:13.141Z,6.12
2023-03-18T18:18:49.625Z,6.04
2023-03-18T18:21:22.059Z,5.97
2023-03-18T18:23:50.603Z,5.90
2023-03-18T18:26:19.984Z,5.84
2023-03-18T18:28:49.659Z,5.82
2023-03-18T18:31:22.359Z,5.81
2023-03-18T18:33:55.779Z,5.67
2023-03-18T18:36:28.214Z,5.56
2023-03-18T18:38:56.758Z,5.52
2023-03-18T18:41:27.553Z,5.50
2023-03-18T18:43:56.013Z,5.50
2023-03-18T18:46:25.200Z,5.49
2023-03-18T18:48:53.898Z,5.50
2023-03-18T18:51:23.271Z,5.46
2023-03-18T18:53:53.488Z,5.40
2023-03-18T18:56:23.765Z,5.36
2023-03-18T18:58:52.083Z,5.37
2023-03-18T19:01:20.407Z,5.36
2023-03-18T19:03:50.072Z,5.37
2023-03-18T19:06:30.511Z,5.39
2023-03-18T19:09:01.999Z,5.39
2023-03-18T19:11:30.299Z,5.38
2023-03-18T19:14:21.995Z,5.36
2023-03-18T19:16:50.534Z,5.33
2023-03-18T19:19:20.656Z,5.31
2023-03-18T19:21:54.446Z,5.28
2023-03-18T19:24:30.961Z,5.24
2023-03-18T19:27:03.175Z,5.21
2023-03-18T19:29:33.089Z,5.21
2023-03-18T19:32:01.867Z,5.23
2023-03-18T19:34:32.472Z,5.22
2023-03-18T19:37:02.987Z,5.23
2023-03-18T19:39:32.055Z,5.24
2023-03-18T19:42:01.750Z,5.24
2023-03-18T19:44:32.149Z,5.23
2023-03-18T19:47:01.638Z,5.21
2023-03-18T19:49:36.620Z,5.20
2023-03-18T19:52:17.112Z,5.19
2023-03-18T19:54:48.399Z,5.21
2023-03-18T19:57:28.176Z,5.19
2023-03-18T20:00:01.418Z,5.16
2023-03-18T20:02:31.792Z,5.17
2023-03-18T20:05:04.465Z,5.16
2023-03-18T20:07:33.269Z,5.16
2023-03-18T20:10:01.748Z,5.17
2023-03-18T20:12:46.802Z,5.19
2023-03-18T20:15:25.593Z,5.21
2023-03-18T20:17:55.058Z,5.22
2023-03-18T20:20:25.061Z,5.20
2023-03-18T20:22:56.414Z,5.17
2023-03-18T20:25:36.006Z,5.14
2023-03-18T20:28:07.320Z,5.12
2023-03-18T20:30:36.770Z,5.12
2023-03-18T20:33:07.606Z,5.10
2023-03-18T20:35:41.694Z,5.13
2023-03-18T20:38:14.183Z,5.16
2023-03-18T20:40:46.411Z,5.22
2023-03-18T20:43:19.833Z,5.28
2023-03-18T20:45:51.571Z,5.29
2023-03-18T20:48:21.213Z,5.28
2023-03-18T20:50:52.441Z,5.26
2023-03-18T20:53:26.136Z,5.22
2023-03-18T20:55:54.435Z,5.19
2023-03-18T20:58:25.030Z,5.17
2023-03-18T21:00:54.552Z,5.14
2023-03-18T21:03:33.825Z,5.15
2023-03-18T21:06:03.966Z,5.15
2023-03-18T21:08:33.200Z,5.16
2023-03-18T21:11:04.024Z,5.15
2023-03-18T21:13:36.334Z,5.13
2023-03-18T21:16:10.748Z,5.12
2023-03-18T21:18:40.946Z,5.09
2023-03-18T21:21:31.970Z,5.02
2023-03-18T21:24:00.330Z,4.97
2023-03-18T21:26:28.649Z,4.89
2023-03-18T21:28:57.466Z,4.84
2023-03-18T21:31:31.462Z,4.79
2023-03-18T21:34:00.209Z,4.71
2023-03-18T21:36:28.275Z,4.65
2023-03-18T21:38:56.970Z,4.59
2023-03-18T21:41:28.105Z,4.54
2023-03-18T21:43:56.125Z,4.50
2023-03-18T21:46:27.230Z,4.49
2023-03-18T21:48:56.203Z,4.48
2023-03-18T21:51:38.097Z,4.44
2023-03-18T21:54:16.209Z,4.37
2023-03-18T21:56:47.924Z,4.31
2023-03-18T21:59:16.255Z,4.27
2023-03-18T22:01:46.708Z,4.24
2023-03-18T22:04:15.159Z,4.26
2023-03-18T22:06:43.640Z,4.32
2023-03-18T22:09:11.914Z,4.41
2023-03-18T22:11:39.908Z,4.50
2023-03-18T22:14:10.411Z,4.58
2023-03-18T22:16:40.152Z,4.68
2023-03-18T22:19:08.611Z,4.76
2023-03-18T22:21:39.762Z,4.81
2023-03-18T22:24:12.961Z,4.85
2023-03-18T22:26:41.140Z,4.88
2023-03-18T22:29:12.646Z,4.91
2023-03-18T22:31:43.624Z,4.96
2023-03-18T22:34:22.701Z,5.02
2023-03-18T22:36:51.837Z,5.08
2023-03-18T22:39:20.066Z,5.13
2023-03-18T22:41:53.768Z,5.22
2023-03-18T22:44:22.922Z,5.29
2023-03-18T22:46:51.472Z,5.35
2023-03-18T22:49:20.095Z,5.41
2023-03-18T22:51:48.956Z,5.44
2023-03-18T22:54:19.287Z,5.46
2023-03-18T22:56:47.303Z,5.52
2023-03-18T22:59:15.531Z,5.55
2023-03-18T23:01:43.888Z,5.58
2023-03-18T23:04:12.503Z,5.63
2023-03-18T23:06:44.187Z,5.70
2023-03-18T23:09:13.167Z,5.78
2023-03-18T23:11:41.218Z,5.80
2023-03-18T23:14:11.094Z,5.81
2023-03-18T23:16:41.158Z,5.83
2023-03-18T23:19:09.546Z,5.86
2023-03-18T23:21:39.675Z,5.89
2023-03-18T23:24:09.358Z,5.90
2023-03-18T23:26:37.501Z,5.92
2023-03-18T23:29:06.448Z,5.96
2023-03-18T23:31:34.713Z,6.01
2023-03-18T23:34:03.940Z,6.10
2023-03-18T23:36:33.021Z,6.17
2023-03-18T23:39:01.342Z,6.19
2023-03-18T23:41:30.732Z,6.22
2023-03-18T23:44:03.688Z,6.24
2023-03-18T23:46:32.927Z,6.24
2023-03-18T23:49:01.383Z,6.24
2023-03-18T23:51:30.073Z,6.24
2023-03-18T23:53:58.307Z,6.26
2023-03-18T23:56:26.515Z,6.32
2023-03-18T23:58:54.994Z,6.36
